Time;durP1;ratioP1;P1;durP2;ratioP2;P2;SDS_P1;SDS_P2;PMS_P1;PMS_P2;Temp;Humidity;BMP_temperature;BMP_pressure;BME280_temperature;BME280_humidity;BME280_pressure;Samples;Min_cycle;Max_cycle;Signal;HPM_P1;HPM_P2
2022/10/16 00:01:05;;;;;;;0.10;0.10;;;22.70;59.10;;;;;;6186081;28;20884;-62
2022/10/16 00:04:08;;;;;;;0.10;0.10;;;22.70;59.00;;;;;;6189031;28;20089;-62
2022/10/16 00:07:09;;;;;;;0.20;0.10;;;22.60;59.00;;;;;;6176988;28;20042;-62
2022/10/16 00:10:11;;;;;;;;;;;22.70;59.20;;;;;;6184252;28;20037;-62
2022/10/16 00:13:12;;;;;;;0.20;0.10;;;22.80;59.50;;;;;;6186422;28;19933;-62
2022/10/16 00:16:14;;;;;;;0.08;0.05;;;22.90;59.40;;;;;;6190385;28;20048;-63
2022/10/16 00:19:17;;;;;;;0.20;0.20;;;22.40;59.00;;;;;;6170171;28;20041;-62
2022/10/16 00:22:18;;;;;;;0.10;0.10;;;22.70;59.30;;;;;;6191086;28;21061;-63
2022/10/16 00:25:23;;;;;;;;;;;22.90;59.50;;;;;;6187941;28;20337;-62
2022/10/16 00:28:24;;;;;;;0.50;0.20;;;22.90;59.50;;;;;;6190038;28;19929;-62
2022/10/16 00:31:26;;;;;;;0.10;0.10;;;22.70;59.40;;;;;;6186280;28;20049;-63
2022/10/16 00:34:28;;;;;;;0.20;0.20;;;22.70;59.50;;;;;;6186183;28;20064;-63
2022/10/16 00:37:29;;;;;;;0.17;0.13;;;22.60;59.50;;;;;;6184382;28;20132;-63
2022/10/16 00:40:31;;;;;;;0.30;0.20;;;22.70;59.60;;;;;;6188159;28;20045;-62
2022/10/16 00:43:37;;;;;;;0.30;0.10;;;22.60;59.60;;;;;;6188702;28;20938;-63
2022/10/16 00:46:41;;;;;;;0.20;0.20;;;23.00;59.60;;;;;;6191887;28;20045;-63
2022/10/16 00:49:43;;;;;;;0.10;0.10;;;22.90;74.60;;;;;;6186475;28;20151;-63
2022/10/16 00:52:48;;;;;;;0.10;0.10;;;22.90;59.80;;;;;;6186215;28;20049;-62
2022/10/16 00:55:53;;;;;;;0.35;0.20;;;22.60;59.50;;;;;;6168400;28;20152;-63
2022/10/16 00:58:55;;;;;;;0.13;0.13;;;22.60;59.60;;;;;;6168633;28;20137;-62
2022/10/16 01:01:58;;;;;;;0.13;0.10;;;23.00;60.00;;;;;;6184854;28;20053;-62
2022/10/16 01:05:01;;;;;;;0.10;0.10;;;22.80;59.90;;;;;;6155845;28;20076;-62
2022/10/16 01:08:11;;;;;;;0.10;0.10;;;23.00;60.10;;;;;;6187889;28;20049;-62
2022/10/16 01:11:22;;;;;;;0.10;0.10;;;23.30;60.10;;;;;;6184538;28;20081;-62
2022/10/16 01:14:31;;;;;;;0.10;0.10;;;22.30;59.70;;;;;;6185400;28;20137;-63
2022/10/16 01:17:39;;;;;;;0.10;0.10;;;22.30;59.70;;;;;;6187813;28;20922;-64
2022/10/16 01:20:45;;;;;;;0.17;0.17;;;22.60;60.00;;;;;;6172020;28;20888;-63
2022/10/16 01:24:00;;;;;;;0.15;0.10;;;22.60;60.00;;;;;;6187649;28;20045;-63
2022/10/16 01:27:09;;;;;;;0.10;0.10;;;22.70;60.10;;;;;;6175882;28;20039;-62
2022/10/16 01:30:15;;;;;;;0.20;0.20;;;22.80;60.20;;;;;;6190931;28;20125;-63
2022/10/16 01:33:20;;;;;;;0.20;0.20;;;22.90;60.30;;;;;;6194589;28;20899;-62
2022/10/16 01:36:28;;;;;;;0.20;0.20;;;22.90;60.30;;;;;;6192059;28;20077;-64
2022/10/16 01:39:34;;;;;;;0.30;0.28;;;22.60;60.30;;;;;;6188693;28;20050;-63
2022/10/16 01:42:40;;;;;;;0.10;0.10;;;22.70;60.30;;;;;;6191385;28;20116;-62
2022/10/16 01:45:44;;;;;;;0.40;0.20;;;22.80;60.30;;;;;;6188750;28;20042;-63
2022/10/16 01:48:46;;;;;;;0.20;0.20;;;22.70;60.40;;;;;;6180837;28;20140;-62
2022/10/16 01:51:51;;;;;;;0.20;0.20;;;22.60;60.50;;;;;;6162899;28;20045;-63
2022/10/16 01:54:55;;;;;;;0.20;0.20;;;23.10;60.70;;;;;;6185014;28;20084;-64
2022/10/16 01:58:00;;;;;;;0.10;0.10;;;22.70;60.50;;;;;;6176518;28;20481;-61
2022/10/16 02:01:03;;;;;;;0.20;0.20;;;22.60;60.50;;;;;;6180456;28;20071;-62
2022/10/16 02:04:09;;;;;;;0.20;0.20;;;22.80;60.70;;;;;;6184762;28;20297;-62
2022/10/16 02:07:11;;;;;;;0.20;0.20;;;22.30;60.50;;;;;;6184014;28;20083;-62
2022/10/16 02:10:12;;;;;;;0.30;0.20;;;22.60;60.70;;;;;;6180989;28;20076;-62
2022/10/16 02:13:17;;;;;;;;;;;22.40;60.80;;;;;;6187733;28;20045;-63
2022/10/16 02:16:19;;;;;;;0.13;0.10;;;22.90;61.90;;;;;;6168414;28;19939;-63
2022/10/16 02:19:25;;;;;;;0.70;0.30;;;22.60;60.90;;;;;;6186715;28;20181;-63
2022/10/16 02:22:30;;;;;;;0.25;0.20;;;22.70;60.90;;;;;;6180006;28;20046;-62
2022/10/16 02:25:35;;;;;;;0.20;0.17;;;22.70;60.90;;;;;;6184568;28;20151;-63
2022/10/16 02:28:42;;;;;;;0.50;0.20;;;22.70;60.90;;;;;;6179640;28;20175;-62
2022/10/16 02:31:51;;;;;;;0.17;0.17;;;22.90;61.00;;;;;;6184649;28;20056;-62
2022/10/16 02:34:53;;;;;;;0.20;0.20;;;22.50;60.80;;;;;;6188183;28;20309;-63
2022/10/16 02:37:55;;;;;;;0.10;0.10;;;22.90;61.20;;;;;;6184296;28;20450;-62
2022/10/16 02:40:57;;;;;;;0.40;0.20;;;22.70;61.00;;;;;;6184958;28;20034;-62
2022/10/16 02:43:59;;;;;;;0.20;0.20;;;22.10;60.90;;;;;;6186070;28;20775;-62
2022/10/16 02:47:01;;;;;;;0.20;0.20;;;22.50;61.00;;;;;;6182830;28;20151;-62
2022/10/16 02:50:03;;;;;;;;;;;22.80;61.30;;;;;;6187827;28;20375;-62
2022/10/16 02:53:04;;;;;;;0.10;0.10;;;22.70;61.40;;;;;;6168507;28;19936;-62
2022/10/16 02:56:06;;;;;;;;;;;22.30;61.00;;;;;;6181832;28;20037;-63
2022/10/16 02:59:08;;;;;;;0.20;0.20;;;22.30;61.20;;;;;;6184539;28;20004;-62
2022/10/16 03:02:10;;;;;;;0.55;0.30;;;22.70;61.30;;;;;;6184117;28;20049;-63
2022/10/16 03:05:11;;;;;;;0.20;0.10;;;22.50;61.20;;;;;;6167943;28;20824;-62
2022/10/16 03:08:13;;;;;;;0.20;0.20;;;22.60;61.30;;;;;;6182190;28;20050;-62
2022/10/16 03:11:15;;;;;;;0.20;0.20;;;22.50;61.10;;;;;;6179462;28;20041;-63
2022/10/16 03:14:17;;;;;;;;;;;22.40;61.20;;;;;;6183862;28;20710;-62
2022/10/16 03:17:18;;;;;;;0.20;0.20;;;22.60;61.50;;;;;;6183236;28;20016;-62
2022/10/16 03:20:20;;;;;;;0.40;0.30;;;22.40;61.20;;;;;;6184649;28;20521;-63
2022/10/16 03:23:21;;;;;;;0.20;0.20;;;22.70;61.20;;;;;;6188285;28;20068;-63
2022/10/16 03:26:23;;;;;;;0.20;0.20;;;22.30;61.80;;;;;;6184715;28;20076;-63
2022/10/16 03:29:25;;;;;;;;;;;22.20;61.00;;;;;;6186076;28;20373;-63
2022/10/16 03:32:28;;;;;;;0.20;0.20;;;23.00;61.70;;;;;;6185118;28;20024;-62
2022/10/16 03:35:30;;;;;;;0.20;0.20;;;22.50;61.30;;;;;;6186091;28;20049;-64
2022/10/16 03:38:31;;;;;;;0.20;0.20;;;22.80;61.50;;;;;;6181877;28;20136;-64
2022/10/16 03:41:32;;;;;;;;;;;22.60;61.40;;;;;;6183532;28;20101;-63
2022/10/16 03:44:34;;;;;;;0.13;0.13;;;22.20;61.50;;;;;;6186713;28;20325;-62
2022/10/16 03:47:36;;;;;;;0.20;0.20;;;22.60;61.40;;;;;;6166629;28;20156;-63
2022/10/16 03:50:38;;;;;;;0.20;0.20;;;22.70;61.50;;;;;;6168888;28;20916;-62
2022/10/16 03:53:39;;;;;;;0.30;0.20;;;22.30;61.10;;;;;;6186229;28;20045;-63
2022/10/16 03:56:41;;;;;;;;;;;22.40;61.60;;;;;;6186594;28;20789;-63
2022/10/16 03:59:43;;;;;;;0.10;0.10;;;22.60;62.00;;;;;;6185977;28;20031;-62
2022/10/16 04:02:44;;;;;;;0.43;0.30;;;22.50;61.50;;;;;;6187518;28;20029;-62
2022/10/16 04:05:51;;;;;;;0.38;0.28;;;22.70;61.80;;;;;;6151259;28;20053;-63
2022/10/16 04:08:52;;;;;;;;;;;22.30;61.70;;;;;;6188320;28;20305;-63
2022/10/16 04:11:53;;;;;;;0.30;0.30;;;22.50;62.00;;;;;;6185335;28;19935;-62
2022/10/16 04:14:55;;;;;;;0.20;0.20;;;22.10;61.60;;;;;;6188564;28;20056;-63
2022/10/16 04:17:57;;;;;;;0.30;0.20;;;22.50;62.00;;;;;;6183449;28;20165;-63
2022/10/16 04:21:02;;;;;;;;;;;22.50;61.90;;;;;;6180991;28;20052;-62
2022/10/16 04:24:04;;;;;;;0.30;0.30;;;22.10;61.80;;;;;;6183102;28;20460;-62
2022/10/16 04:27:05;;;;;;;0.30;0.22;;;22.50;62.00;;;;;;6161146;28;20326;-62
2022/10/16 04:30:08;;;;;;;;;;;22.50;62.00;;;;;;6181893;28;20256;-62
2022/10/16 04:33:10;;;;;;;0.22;0.20;;;22.80;62.30;;;;;;6177363;28;20702;-63
2022/10/16 04:36:11;;;;;;;;;;;22.40;62.10;;;;;;6181224;28;20077;-63
2022/10/16 04:39:12;;;;;;;0.30;0.30;;;22.20;62.20;;;;;;6179509;28;20016;-63
2022/10/16 04:42:14;;;;;;;;;;;22.40;62.10;;;;;;6175132;28;20127;-62
2022/10/16 04:45:16;;;;;;;0.30;0.30;;;22.00;62.30;;;;;;6177999;28;20586;-62
2022/10/16 04:48:18;;;;;;;0.30;0.25;;;22.40;62.20;;;;;;6174327;28;20053;-62
2022/10/16 04:51:20;;;;;;;;;;;22.00;62.10;;;;;;6179924;28;20712;-62
2022/10/16 04:54:21;;;;;;;;;;;22.30;62.10;;;;;;6179156;28;20208;-62
2022/10/16 04:57:23;;;;;;;0.30;0.30;;;22.40;62.60;;;;;;6179657;28;19951;-63
2022/10/16 05:00:25;;;;;;;0.20;0.20;;;22.10;62.10;;;;;;6181117;28;20392;-61
2022/10/16 05:03:27;;;;;;;0.35;0.20;;;22.20;62.30;;;;;;6180557;28;20053;-62
2022/10/16 05:06:28;;;;;;;0.75;0.30;;;22.10;62.40;;;;;;6183516;28;20104;-63
2022/10/16 05:09:30;;;;;;;;;;;22.20;62.40;;;;;;6182559;28;20801;-62
2022/10/16 05:12:31;;;;;;;0.20;0.17;;;22.40;62.90;;;;;;6182064;28;20199;-62
2022/10/16 05:15:34;;;;;;;0.20;0.20;;;22.00;62.30;;;;;;6178687;28;20454;-64
2022/10/16 05:18:35;;;;;;;0.22;0.20;;;22.20;62.50;;;;;;6160316;28;20041;-62
2022/10/16 05:21:36;;;;;;;;;;;22.70;63.00;;;;;;6179855;28;20915;-63
2022/10/16 05:24:38;;;;;;;0.20;0.20;;;22.20;62.80;;;;;;6181172;28;20823;-62
2022/10/16 05:27:39;;;;;;;;;;;22.30;63.20;;;;;;6184392;28;20055;-63
2022/10/16 05:30:41;;;;;;;0.20;0.20;;;22.50;63.20;;;;;;6181047;28;20494;-62
2022/10/16 05:33:43;;;;;;;0.38;0.30;;;22.40;62.90;;;;;;6184416;28;20382;-62
2022/10/16 05:36:46;;;;;;;0.25;0.25;;;22.50;62.90;;;;;;6183773;28;20053;-62
2022/10/16 05:39:47;;;;;;;;;;;22.50;63.20;;;;;;6183867;28;20315;-62
2022/10/16 05:42:48;;;;;;;0.20;0.20;;;22.50;63.40;;;;;;6179972;28;19967;-62
2022/10/16 05:45:54;;;;;;;;;;;22.50;63.20;;;;;;6182577;28;20438;-63
2022/10/16 05:48:56;;;;;;;0.20;0.20;;;22.40;63.30;;;;;;6182663;28;19936;-63
2022/10/16 05:52:01;;;;;;;;;;;22.20;63.10;;;;;;6183421;28;20717;-63
2022/10/16 05:55:02;;;;;;;0.60;0.20;;;22.60;63.20;;;;;;6180100;28;20339;-62
2022/10/16 05:58:04;;;;;;;0.20;0.20;;;22.20;63.20;;;;;;6180432;28;20116;-61
2022/10/16 06:01:07;;;;;;;;;;;22.10;63.30;;;;;;6184022;28;20449;-62
2022/10/16 06:04:08;;;;;;;0.30;0.30;;;22.10;63.30;;;;;;6175681;28;20446;-63
2022/10/16 06:07:10;;;;;;;0.25;0.22;;;22.40;63.40;;;;;;6174304;28;20049;-62
2022/10/16 06:10:12;;;;;;;0.28;0.20;;;22.20;63.50;;;;;;6167827;28;20505;-62
2022/10/16 06:13:13;;;;;;;;;;;22.10;63.40;;;;;;6172474;28;20493;-62
2022/10/16 06:16:15;;;;;;;;;;;22.10;63.60;;;;;;6172562;28;20388;-62
2022/10/16 06:19:17;;;;;;;0.20;0.20;;;22.50;63.80;;;;;;6176068;28;19987;-62
2022/10/16 06:22:21;;;;;;;0.52;0.38;;;22.30;63.40;;;;;;6170603;28;20342;-62
2022/10/16 06:25:23;;;;;;;0.40;0.40;;;22.50;63.70;;;;;;6168366;28;20303;-62
2022/10/16 06:28:24;;;;;;;;;;;22.30;63.70;;;;;;6171566;28;20306;-62
2022/10/16 06:31:30;;;;;;;0.30;0.30;;;22.00;63.80;;;;;;6172506;28;20588;-63
2022/10/16 06:34:31;;;;;;;0.20;0.20;;;22.00;63.40;;;;;;6138762;28;20431;-62
2022/10/16 06:37:32;;;;;;;;;;;22.50;63.90;;;;;;6173110;28;20360;-62
2022/10/16 06:40:34;;;;;;;0.55;0.30;;;22.60;64.20;;;;;;6170463;28;20002;-62
2022/10/16 06:43:35;;;;;;;;;;;22.50;63.80;;;;;;6173172;28;20295;-62
2022/10/16 06:46:37;;;;;;;0.30;0.30;;;22.60;64.20;;;;;;6161426;28;20114;-62
2022/10/16 06:49:39;;;;;;;0.30;0.30;;;22.40;63.50;;;;;;6159070;28;20142;-63
2022/10/16 06:52:40;;;;;;;0.22;0.22;;;22.50;64.10;;;;;;6165333;28;20166;-63
2022/10/16 06:55:42;;;;;;;0.40;0.38;;;22.60;64.00;;;;;;6165818;28;20293;-62
2022/10/16 06:58:43;;;;;;;0.30;0.20;;;22.20;63.80;;;;;;6165495;28;20048;-63
2022/10/16 07:01:45;;;;;;;0.30;0.30;;;22.40;63.90;;;;;;6146706;28;20087;-62
2022/10/16 07:04:47;;;;;;;0.22;0.22;;;22.50;64.10;;;;;;6164128;28;20484;-62
2022/10/16 07:07:52;;;;;;;0.22;0.22;;;22.50;63.90;;;;;;6163406;28;20168;-62
2022/10/16 07:10:59;;;;;;;0.35;0.30;;;22.60;64.20;;;;;;6162160;28;20207;-63
2022/10/16 07:14:01;;;;;;;0.20;0.20;;;22.40;63.90;;;;;;6163195;28;20512;-62
2022/10/16 07:17:02;;;;;;;;;;;22.20;64.00;;;;;;6162383;28;20045;-62
2022/10/16 07:20:05;;;;;;;0.20;0.20;;;22.30;64.30;;;;;;6169624;28;19925;-63
2022/10/16 07:23:06;;;;;;;0.20;0.20;;;22.40;64.00;;;;;;6164314;28;20664;-62
2022/10/16 07:26:09;;;;;;;0.30;0.20;;;22.40;64.70;;;;;;6170188;28;20160;-63
2022/10/16 07:29:13;;;;;;;0.35;0.35;;;22.50;64.10;;;;;;6135956;28;21084;-63
2022/10/16 07:32:15;;;;;;;0.30;0.30;;;22.10;63.80;;;;;;6169142;28;20167;-62
2022/10/16 07:35:17;;;;;;;0.38;0.20;;;22.50;64.30;;;;;;6166811;28;20245;-62
2022/10/16 07:38:19;;;;;;;0.30;0.20;;;22.70;64.40;;;;;;6164061;28;20112;-62
2022/10/16 07:41:20;;;;;;;0.50;0.40;;;22.30;63.90;;;;;;6147245;28;20478;-62
2022/10/16 07:44:22;;;;;;;;;;;22.70;64.30;;;;;;6167672;28;20082;-62
2022/10/16 07:47:24;;;;;;;0.20;0.20;;;22.30;64.30;;;;;;6167423;28;20586;-63
2022/10/16 07:50:26;;;;;;;0.20;0.20;;;22.30;63.90;;;;;;6168460;28;20381;-62
2022/10/16 07:53:30;;;;;;;;;;;22.60;64.10;;;;;;6165358;28;20616;-62
2022/10/16 07:56:32;;;;;;;0.38;0.20;;;22.60;64.30;;;;;;6167618;28;20938;-62
2022/10/16 07:59:34;;;;;;;0.30;0.30;;;22.30;63.90;;;;;;6169063;28;21015;-61
2022/10/16 08:02:36;;;;;;;;;;;22.40;64.00;;;;;;6166057;28;20263;-62
2022/10/16 08:05:37;;;;;;;0.40;0.20;;;22.10;63.80;;;;;;6165090;28;20108;-63
2022/10/16 08:08:38;;;;;;;;;;;22.40;63.80;;;;;;6164551;28;20573;-62
2022/10/16 08:11:40;;;;;;;0.10;0.10;;;22.30;64.20;;;;;;6146590;28;19924;-62
2022/10/16 08:14:41;;;;;;;0.20;0.20;;;22.40;63.90;;;;;;6162100;28;20771;-62
2022/10/16 08:17:56;;;;;;;0.50;0.30;;;22.60;64.30;;;;;;6159698;28;20644;-62
2022/10/16 08:20:58;;;;;;;0.17;0.15;;;22.60;63.80;;;;;;6164271;28;20041;-63
2022/10/16 08:24:00;;;;;;;0.50;0.30;;;22.70;63.90;;;;;;6150478;28;20057;-62
2022/10/16 08:27:05;;;;;;;0.10;0.10;;;22.30;63.90;;;;;;6129826;28;20049;-62
2022/10/16 08:30:08;;;;;;;0.20;0.20;;;22.30;63.90;;;;;;6159597;28;20386;-62
2022/10/16 08:33:10;;;;;;;0.40;0.30;;;22.60;63.80;;;;;;6170018;28;20755;-62
2022/10/16 08:36:12;;;;;;;0.17;0.17;;;23.00;64.20;;;;;;6165623;28;20038;-63
2022/10/16 08:39:14;;;;;;;0.38;0.20;;;22.70;63.80;;;;;;6147868;28;20718;-62
2022/10/16 08:42:28;;;;;;;0.35;0.30;;;22.80;64.00;;;;;;6170297;28;20257;-63
2022/10/16 08:45:42;;;;;;;0.10;0.10;;;22.70;63.80;;;;;;6167892;28;20489;-62
2022/10/16 08:48:47;;;;;;;0.10;0.10;;;22.80;63.80;;;;;;6162062;28;20425;-62
2022/10/16 08:51:50;;;;;;;0.10;0.10;;;22.90;63.80;;;;;;6143984;28;20356;-62
2022/10/16 08:54:55;;;;;;;0.20;0.20;;;22.70;63.70;;;;;;6164827;28;20468;-62
2022/10/16 08:57:57;;;;;;;0.10;0.10;;;22.70;63.60;;;;;;6163053;28;20200;-61
2022/10/16 09:01:02;;;;;;;0.10;0.10;;;22.60;63.60;;;;;;6166321;28;20092;-63
2022/10/16 09:04:39;;;;;;;0.43;0.13;;;22.80;63.50;;;;;;6166009;28;20104;-63
2022/10/16 09:07:49;;;;;;;0.10;0.10;;;22.50;63.20;;;;;;6164081;28;20041;-62
2022/10/16 09:10:56;;;;;;;0.10;0.10;;;22.70;63.30;;;;;;6160147;28;20053;-62
2022/10/16 09:14:04;;;;;;;0.10;0.10;;;22.80;63.20;;;;;;6163940;28;20257;-63
2022/10/16 09:17:20;;;;;;;0.20;0.20;;;22.80;63.10;;;;;;6159378;28;20340;-63
2022/10/16 09:20:33;;;;;;;0.20;0.10;;;22.90;63.10;;;;;;6161257;28;20046;-62
2022/10/16 09:23:38;;;;;;;0.30;0.20;;;22.80;62.90;;;;;;6161950;28;20880;-62
2022/10/16 09:26:39;;;;;;;0.10;0.10;;;22.50;62.80;;;;;;6161564;28;20436;-62
2022/10/16 09:29:41;;;;;;;0.45;0.10;;;23.00;62.90;;;;;;6161341;28;20862;-62
2022/10/16 09:32:44;;;;;;;0.10;0.10;;;22.50;62.70;;;;;;6163526;28;20107;-63
2022/10/16 09:35:49;;;;;;;0.10;0.10;;;22.70;62.60;;;;;;6140371;28;20508;-62
2022/10/16 09:39:03;;;;;;;0.30;0.20;;;22.80;62.60;;;;;;6145495;28;20038;-63
2022/10/16 09:42:04;;;;;;;0.38;0.15;;;23.00;62.60;;;;;;6157559;28;20715;-62
2022/10/16 09:45:20;;;;;;;0.10;0.10;;;23.00;62.60;;;;;;6161494;28;20200;-62
2022/10/16 09:48:22;;;;;;;0.10;0.10;;;22.90;62.30;;;;;;6146196;28;20370;-61
2022/10/16 09:51:26;;;;;;;0.10;0.10;;;23.00;62.40;;;;;;6162531;28;20396;-62
2022/10/16 09:54:28;;;;;;;0.10;0.10;;;22.60;62.00;;;;;;6161273;28;20495;-63
2022/10/16 09:57:33;;;;;;;0.20;0.20;;;22.80;62.20;;;;;;6159036;28;20706;-62
2022/10/16 10:00:34;;;;;;;0.10;0.10;;;22.80;61.90;;;;;;6162714;28;20187;-62
2022/10/16 10:03:37;;;;;;;;;;;23.00;62.10;;;;;;6165420;28;20768;-62
2022/10/16 10:06:45;;;;;;;0.20;0.10;;;23.00;62.20;;;;;;6133243;28;20387;-63
2022/10/16 10:09:47;;;;;;;0.13;0.10;;;22.60;61.50;;;;;;6122798;28;20043;-62
2022/10/16 10:12:49;;;;;;;0.17;0.10;;;22.80;61.70;;;;;;6160627;28;20046;-61
2022/10/16 10:15:51;;;;;;;0.13;0.13;;;22.80;61.60;;;;;;6158431;28;20046;-62
2022/10/16 10:18:58;;;;;;;0.10;0.10;;;22.90;61.50;;;;;;6146929;28;21157;-61
2022/10/16 10:22:00;;;;;;;0.17;0.10;;;22.80;61.30;;;;;;6128977;28;20511;-62
2022/10/16 10:25:26;;;;;;;0.30;0.10;;;22.50;61.10;;;;;;6157463;28;20227;-62
2022/10/16 10:28:55;;;;;;;0.55;0.10;;;22.60;60.90;;;;;;6160202;28;21459;-62
2022/10/16 10:32:08;;;;;;;0.10;0.10;;;23.10;61.10;;;;;;6162070;28;20638;-62
2022/10/16 10:35:18;;;;;;;0.10;0.10;;;23.30;61.20;;;;;;6149660;28;20081;-61
2022/10/16 10:38:31;;;;;;;0.10;0.10;;;22.60;60.70;;;;;;6148888;28;20187;-62
2022/10/16 10:41:57;;;;;;;0.10;0.10;;;22.50;61.20;;;;;;6166046;28;20143;-63
2022/10/16 10:45:17;;;;;;;0.10;0.10;;;22.70;60.50;;;;;;6166686;28;20153;-62
2022/10/16 10:48:48;;;;;;;0.30;0.30;;;23.00;60.60;;;;;;6146015;28;20784;-63
2022/10/16 10:51:59;;;;;;;0.00;0.00;;;22.90;60.40;;;;;;6163358;28;20047;-62
2022/10/16 10:55:13;;;;;;;0.25;0.20;;;23.10;60.60;;;;;;6163963;28;20640;-62
2022/10/16 10:58:42;;;;;;;0.10;0.10;;;22.80;60.20;;;;;;6162727;28;20598;-62
2022/10/16 11:01:55;;;;;;;0.10;0.10;;;23.20;60.40;;;;;;6167438;28;20365;-63
2022/10/16 11:05:23;;;;;;;0.10;0.10;;;23.30;60.40;;;;;;6164754;28;20623;-61
2022/10/16 11:08:33;;;;;;;0.10;0.10;;;22.50;60.00;;;;;;6166018;28;20390;-62
2022/10/16 11:11:41;;;;;;;0.00;0.00;;;22.80;60.10;;;;;;6149897;28;20424;-61
2022/10/16 11:14:49;;;;;;;0.10;0.10;;;23.00;60.20;;;;;;6149602;28;20278;-63
2022/10/16 11:17:58;;;;;;;0.10;0.10;;;23.10;60.40;;;;;;6169551;28;21086;-62
2022/10/16 11:21:05;;;;;;;0.15;0.15;;;23.30;60.50;;;;;;6164701;28;20340;-62
2022/10/16 11:24:14;;;;;;;0.10;0.10;;;23.20;60.30;;;;;;6168334;28;20073;-62
2022/10/16 11:27:19;;;;;;;0.35;0.20;;;23.20;60.30;;;;;;6167903;28;20168;-62
2022/10/16 11:30:24;;;;;;;0.10;0.10;;;23.10;60.20;;;;;;6166658;28;20231;-62
2022/10/16 11:33:31;;;;;;;0.20;0.20;;;23.10;60.30;;;;;;6149923;28;20940;-61
2022/10/16 11:36:38;;;;;;;0.20;0.20;;;23.10;60.30;;;;;;6168870;28;20439;-62
2022/10/16 11:39:42;;;;;;;0.10;0.10;;;22.70;60.30;;;;;;6147511;28;20052;-62
2022/10/16 11:42:52;;;;;;;0.15;0.15;;;23.00;60.40;;;;;;6170721;28;20063;-62
2022/10/16 11:45:57;;;;;;;0.25;0.15;;;22.50;60.20;;;;;;6164166;28;20045;-62
2022/10/16 11:49:09;;;;;;;0.32;0.20;;;22.60;60.30;;;;;;6119831;28;20308;-62
2022/10/16 11:52:19;;;;;;;0.20;0.20;;;22.90;60.60;;;;;;6162027;28;20186;-61
2022/10/16 11:55:24;;;;;;;0.10;0.10;;;23.10;60.80;;;;;;6142155;28;20141;-62
2022/10/16 11:58:33;;;;;;;0.40;0.20;;;22.90;60.80;;;;;;6145627;28;20350;-63
2022/10/16 12:01:41;;;;;;;0.38;0.30;;;23.00;61.00;;;;;;6161028;28;20042;-63
2022/10/16 12:04:47;;;;;;;0.17;0.10;;;22.50;61.00;;;;;;6164569;28;20073;-63
2022/10/16 12:08:00;;;;;;;0.52;0.10;;;23.00;61.20;;;;;;6167308;28;20080;-62
2022/10/16 12:11:20;;;;;;;0.28;0.17;;;22.60;61.10;;;;;;6162315;28;20477;-62
2022/10/16 12:14:36;;;;;;;0.10;0.10;;;22.80;61.40;;;;;;6144650;28;20156;-62
2022/10/16 12:17:58;;;;;;;0.20;0.10;;;22.60;61.30;;;;;;6123937;28;20219;-63
2022/10/16 12:21:04;;;;;;;;;;;23.00;61.70;;;;;;6158350;28;21721;-62
2022/10/16 12:24:07;;;;;;;0.20;0.15;;;23.10;61.60;;;;;;6147242;28;20314;-62
2022/10/16 12:27:24;;;;;;;0.20;0.20;;;23.00;61.80;;;;;;6142698;28;20409;-62
2022/10/16 12:30:28;;;;;;;0.30;0.25;;;23.40;62.40;;;;;;6143308;28;20176;-62
2022/10/16 12:33:40;;;;;;;0.30;0.20;;;23.00;62.10;;;;;;6159634;28;21178;-62
2022/10/16 12:36:42;;;;;;;0.10;0.10;;;22.80;62.20;;;;;;6145851;28;20409;-63
2022/10/16 12:39:44;;;;;;;0.10;0.10;;;23.00;62.50;;;;;;6157098;28;20309;-62
2022/10/16 12:42:45;;;;;;;0.40;0.28;;;22.50;62.40;;;;;;6160005;28;20088;-62
2022/10/16 12:45:58;;;;;;;0.10;0.10;;;22.60;62.60;;;;;;6161263;28;20046;-62
2022/10/16 12:49:16;;;;;;;0.10;0.10;;;23.10;62.80;;;;;;6136821;28;20486;-62
2022/10/16 12:52:26;;;;;;;0.30;0.20;;;22.60;62.70;;;;;;6133526;28;20310;-62
2022/10/16 12:55:42;;;;;;;0.10;0.10;;;23.00;63.10;;;;;;6131104;28;20388;-62
2022/10/16 12:58:56;;;;;;;0.10;0.10;;;22.70;63.10;;;;;;6141257;28;20235;-62
2022/10/16 13:02:16;;;;;;;0.10;0.10;;;23.00;63.40;;;;;;6158613;28;20037;-62
2022/10/16 13:05:33;;;;;;;0.57;0.30;;;22.60;63.30;;;;;;6155974;28;20085;-62
2022/10/16 13:08:50;;;;;;;0.20;0.20;;;22.70;63.40;;;;;;6141991;28;20357;-62
2022/10/16 13:12:08;;;;;;;0.25;0.20;;;23.20;63.90;;;;;;6160854;28;20421;-62
2022/10/16 13:15:24;;;;;;;0.10;0.10;;;23.00;63.90;;;;;;6156482;28;20185;-62
2022/10/16 13:18:34;;;;;;;0.22;0.10;;;22.90;64.00;;;;;;6158324;28;20298;-62
2022/10/16 13:21:44;;;;;;;0.17;0.17;;;23.10;64.20;;;;;;6162045;28;20041;-62
2022/10/16 13:24:59;;;;;;;0.57;0.20;;;22.90;64.20;;;;;;6163180;28;20241;-60
2022/10/16 13:28:01;;;;;;;0.10;0.10;;;22.60;64.20;;;;;;6157351;28;20479;-62
2022/10/16 13:31:04;;;;;;;0.10;0.10;;;23.10;64.50;;;;;;6158967;28;20045;-62
2022/10/16 13:34:12;;;;;;;0.10;0.10;;;22.90;64.70;;;;;;6160925;28;20162;-60
2022/10/16 13:37:18;;;;;;;0.65;0.22;;;23.00;64.90;;;;;;6154891;28;20255;-62
2022/10/16 13:40:22;;;;;;;0.30;0.20;;;22.90;65.00;;;;;;6159010;28;20245;-61
2022/10/16 13:43:27;;;;;;;0.20;0.10;;;22.80;65.10;;;;;;6158188;28;20907;-62
2022/10/16 13:46:34;;;;;;;0.15;0.15;;;23.00;65.30;;;;;;6138944;28;20096;-61
2022/10/16 13:49:36;;;;;;;0.20;0.20;;;23.00;65.60;;;;;;6162658;28;20351;-62
2022/10/16 13:52:37;;;;;;;0.20;0.20;;;22.90;65.70;;;;;;6163914;28;20047;-62
2022/10/16 13:55:39;;;;;;;0.13;0.10;;;23.10;65.90;;;;;;6159528;28;20671;-63
2022/10/16 13:58:41;;;;;;;0.28;0.20;;;23.20;66.20;;;;;;6160012;28;20069;-62
2022/10/16 14:01:44;;;;;;;0.15;0.15;;;23.00;65.80;;;;;;6143990;28;20739;-62
2022/10/16 14:04:47;;;;;;;0.25;0.20;;;22.80;66.10;;;;;;6144242;28;20516;-61
2022/10/16 14:07:51;;;;;;;0.28;0.20;;;23.10;66.30;;;;;;6162385;28;20050;-62
2022/10/16 14:10:55;;;;;;;0.20;0.10;;;22.70;66.30;;;;;;6159474;28;20529;-62
2022/10/16 14:13:57;;;;;;;0.20;0.17;;;23.50;66.70;;;;;;6142230;28;20140;-62
2022/10/16 14:16:58;;;;;;;0.20;0.20;;;23.60;67.00;;;;;;6158643;28;20362;-62
2022/10/16 14:20:05;;;;;;;0.20;0.10;;;23.10;66.70;;;;;;6157621;28;20254;-63
2022/10/16 14:23:21;;;;;;;0.20;0.20;;;23.30;66.90;;;;;;6143839;28;20267;-62
2022/10/16 14:26:24;;;;;;;0.30;0.20;;;22.80;67.00;;;;;;6139399;28;20429;-62
2022/10/16 14:29:27;;;;;;;0.10;0.10;;;23.20;67.10;;;;;;6151205;28;20760;-62
2022/10/16 14:32:28;;;;;;;0.30;0.30;;;22.80;66.90;;;;;;6147400;28;20367;-62
2022/10/16 14:35:33;;;;;;;0.10;0.10;;;23.10;67.40;;;;;;6162194;28;20470;-62
2022/10/16 14:38:36;;;;;;;0.20;0.20;;;23.10;67.30;;;;;;6154014;28;20085;-62
2022/10/16 14:41:47;;;;;;;0.17;0.17;;;23.20;67.50;;;;;;6159194;28;20324;-62
2022/10/16 14:44:52;;;;;;;0.20;0.20;;;23.30;67.70;;;;;;6166791;28;20045;-62
2022/10/16 14:47:57;;;;;;;0.20;0.20;;;23.10;67.60;;;;;;6164119;28;20537;-62
2022/10/16 14:50:59;;;;;;;0.20;0.20;;;23.30;67.80;;;;;;6146666;28;20469;-62
2022/10/16 14:54:01;;;;;;;0.13;0.10;;;23.50;68.10;;;;;;6159830;28;20241;-63
2022/10/16 14:57:03;;;;;;;0.10;0.10;;;23.30;68.10;;;;;;6157098;28;20650;-63
2022/10/16 15:00:13;;;;;;;0.10;0.10;;;23.10;68.00;;;;;;6157369;28;20064;-62
2022/10/16 15:03:15;;;;;;;0.10;0.10;;;23.20;67.90;;;;;;6140828;28;20319;-62
2022/10/16 15:06:17;;;;;;;0.10;0.10;;;23.30;68.20;;;;;;6139605;28;20576;-62
2022/10/16 15:09:19;;;;;;;0.30;0.20;;;23.40;68.30;;;;;;6160304;28;20590;-62
2022/10/16 15:12:20;;;;;;;0.10;0.10;;;23.00;68.30;;;;;;6158816;28;20056;-62
2022/10/16 15:15:32;;;;;;;0.10;0.10;;;23.00;68.10;;;;;;6156479;28;20435;-62
2022/10/16 15:18:33;;;;;;;0.30;0.30;;;23.20;68.30;;;;;;6145864;28;20280;-62
2022/10/16 15:21:35;;;;;;;;;;;23.30;68.50;;;;;;6158895;28;20195;-63
2022/10/16 15:24:37;;;;;;;0.68;0.15;;;23.50;68.80;;;;;;6159321;28;20184;-62
2022/10/16 15:27:41;;;;;;;0.28;0.20;;;23.30;68.40;;;;;;6164247;28;20045;-62
2022/10/16 15:30:44;;;;;;;0.15;0.15;;;23.40;68.80;;;;;;6164215;28;20046;-62
2022/10/16 15:33:52;;;;;;;0.15;0.15;;;23.50;68.70;;;;;;6145391;28;20297;-60
2022/10/16 15:36:56;;;;;;;0.22;0.13;;;23.00;68.60;;;;;;6158823;28;20052;-62
2022/10/16 15:39:58;;;;;;;0.30;0.20;;;23.30;68.70;;;;;;6163105;28;20123;-63
2022/10/16 15:42:59;;;;;;;;;;;23.20;68.90;;;;;;6163641;28;20566;-62
2022/10/16 15:46:03;;;;;;;0.10;0.10;;;23.30;69.20;;;;;;6161660;28;19929;-62
2022/10/16 15:49:04;;;;;;;0.20;0.20;;;23.40;68.90;;;;;;6131442;28;20614;-62
2022/10/16 15:52:06;;;;;;;0.10;0.10;;;23.20;68.90;;;;;;6166517;28;20296;-62
2022/10/16 15:55:09;;;;;;;0.20;0.20;;;23.40;69.20;;;;;;6167412;28;20704;-61
2022/10/16 15:58:10;;;;;;;0.35;0.30;;;23.40;69.20;;;;;;6149055;28;20401;-62
2022/10/16 16:01:12;;;;;;;0.15;0.13;;;23.30;69.40;;;;;;6165208;28;20714;-62
2022/10/16 16:04:13;;;;;;;0.32;0.20;;;23.30;69.50;;;;;;6167465;28;20061;-62
2022/10/16 16:07:36;;;;;;;0.13;0.10;;;23.30;69.50;;;;;;6150304;28;20351;-62
2022/10/16 16:10:38;;;;;;;0.10;0.10;;;23.20;69.30;;;;;;6164155;28;20168;-63
2022/10/16 16:13:40;;;;;;;0.40;0.20;;;23.50;69.60;;;;;;6165759;28;20781;-62